sensor_id;sensor_type;location;lat;lon;timestamp;P1;durP1;ratioP1;P2;durP2;ratioP2
53261;SDS011;39658;51.090;-1.786;2023-05-02T00:00:23;6.60;;;2.80;;
53261;SDS011;39658;51.090;-1.786;2023-05-02T00:02:50;6.95;;;3.75;;
53261;SDS011;39658;51.090;-1.786;2023-05-02T00:05:17;6.55;;;2.92;;
53261;SDS011;39658;51.090;-1.786;2023-05-02T00:07:45;8.25;;;3.53;;
53261;SDS011;39658;51.090;-1.786;2023-05-02T00:10:12;7.10;;;3.10;;
53261;SDS011;39658;51.090;-1.786;2023-05-02T00:12:38;8.43;;;2.97;;
53261;SDS011;39658;51.090;-1.786;2023-05-02T00:15:06;9.63;;;3.15;;
53261;SDS011;39658;51.090;-1.786;2023-05-02T00:17:33;8.57;;;3.40;;
53261;SDS011;39658;51.090;-1.786;2023-05-02T00:20:00;8.88;;;3.25;;
53261;SDS011;39658;51.090;-1.786;2023-05-02T00:22:28;7.57;;;3.38;;
53261;SDS011;39658;51.090;-1.786;2023-05-02T00:24:56;9.00;;;3.58;;
53261;SDS011;39658;51.090;-1.786;2023-05-02T00:27:23;5.75;;;3.00;;
53261;SDS011;39658;51.090;-1.786;2023-05-02T00:29:50;8.13;;;3.40;;
53261;SDS011;39658;51.090;-1.786;2023-05-02T00:32:17;8.20;;;2.90;;
53261;SDS011;39658;51.090;-1.786;2023-05-02T00:34:44;6.88;;;2.95;;
53261;SDS011;39658;51.090;-1.786;2023-05-02T00:37:10;10.30;;;4.28;;
53261;SDS011;39658;51.090;-1.786;2023-05-02T00:39:38;8.00;;;3.22;;
53261;SDS011;39658;51.090;-1.786;2023-05-02T00:42:06;10.60;;;3.03;;
53261;SDS011;39658;51.090;-1.786;2023-05-02T00:44:33;7.55;;;3.65;;
53261;SDS011;39658;51.090;-1.786;2023-05-02T00:47:00;8.15;;;2.88;;
53261;SDS011;39658;51.090;-1.786;2023-05-02T00:49:27;6.85;;;2.95;;
53261;SDS011;39658;51.090;-1.786;2023-05-02T00:51:55;8.63;;;3.33;;
53261;SDS011;39658;51.090;-1.786;2023-05-02T00:54:22;8.15;;;3.80;;
53261;SDS011;39658;51.090;-1.786;2023-05-02T00:56:48;8.48;;;3.33;;
53261;SDS011;39658;51.090;-1.786;2023-05-02T00:59:17;6.60;;;3.00;;
53261;SDS011;39658;51.090;-1.786;2023-05-02T01:01:47;8.23;;;3.53;;
53261;SDS011;39658;51.090;-1.786;2023-05-02T01:04:22;8.45;;;3.25;;
53261;SDS011;39658;51.090;-1.786;2023-05-02T01:07:00;6.28;;;2.72;;
53261;SDS011;39658;51.090;-1.786;2023-05-02T01:09:39;7.88;;;3.05;;
53261;SDS011;39658;51.090;-1.786;2023-05-02T01:12:23;6.93;;;2.35;;
53261;SDS011;39658;51.090;-1.786;2023-05-02T01:14:55;9.07;;;3.35;;
53261;SDS011;39658;51.090;-1.786;2023-05-02T01:17:24;8.05;;;2.97;;
53261;SDS011;39658;51.090;-1.786;2023-05-02T01:19:55;8.27;;;3.92;;
53261;SDS011;39658;51.090;-1.786;2023-05-02T01:22:25;8.48;;;3.42;;
53261;SDS011;39658;51.090;-1.786;2023-05-02T01:24:57;8.82;;;3.50;;
53261;SDS011;39658;51.090;-1.786;2023-05-02T01:27:32;5.95;;;3.40;;
53261;SDS011;39658;51.090;-1.786;2023-05-02T01:30:07;8.13;;;3.78;;
53261;SDS011;39658;51.090;-1.786;2023-05-02T01:32:36;8.98;;;2.80;;
53261;SDS011;39658;51.090;-1.786;2023-05-02T01:35:05;9.23;;;4.38;;
53261;SDS011;39658;51.090;-1.786;2023-05-02T01:37:35;7.50;;;3.38;;
53261;SDS011;39658;51.090;-1.786;2023-05-02T01:40:03;7.32;;;3.00;;
53261;SDS011;39658;51.090;-1.786;2023-05-02T01:42:32;9.95;;;3.10;;
53261;SDS011;39658;51.090;-1.786;2023-05-02T01:45:01;11.32;;;4.15;;
53261;SDS011;39658;51.090;-1.786;2023-05-02T01:47:32;11.82;;;3.85;;
53261;SDS011;39658;51.090;-1.786;2023-05-02T01:50:01;10.05;;;3.58;;
53261;SDS011;39658;51.090;-1.786;2023-05-02T01:52:31;11.63;;;3.85;;
53261;SDS011;39658;51.090;-1.786;2023-05-02T01:54:59;8.15;;;2.97;;
53261;SDS011;39658;51.090;-1.786;2023-05-02T01:57:29;6.65;;;3.58;;
53261;SDS011;39658;51.090;-1.786;2023-05-02T01:59:56;8.48;;;3.22;;
53261;SDS011;39658;51.090;-1.786;2023-05-02T02:02:24;8.95;;;3.50;;
53261;SDS011;39658;51.090;-1.786;2023-05-02T02:04:54;9.18;;;3.53;;
53261;SDS011;39658;51.090;-1.786;2023-05-02T02:07:22;9.25;;;3.65;;
53261;SDS011;39658;51.090;-1.786;2023-05-02T02:09:49;7.32;;;3.63;;
53261;SDS011;39658;51.090;-1.786;2023-05-02T02:12:19;9.98;;;4.30;;
53261;SDS011;39658;51.090;-1.786;2023-05-02T02:14:50;10.50;;;4.70;;
53261;SDS011;39658;51.090;-1.786;2023-05-02T02:17:23;10.05;;;3.47;;
53261;SDS011;39658;51.090;-1.786;2023-05-02T02:19:54;10.18;;;3.95;;
53261;SDS011;39658;51.090;-1.786;2023-05-02T02:22:22;10.00;;;4.45;;
53261;SDS011;39658;51.090;-1.786;2023-05-02T02:24:53;9.80;;;3.60;;
53261;SDS011;39658;51.090;-1.786;2023-05-02T02:27:20;13.48;;;4.07;;
53261;SDS011;39658;51.090;-1.786;2023-05-02T02:29:47;10.57;;;4.35;;
53261;SDS011;39658;51.090;-1.786;2023-05-02T02:32:14;9.57;;;4.25;;
53261;SDS011;39658;51.090;-1.786;2023-05-02T02:34:41;10.07;;;4.50;;
53261;SDS011;39658;51.090;-1.786;2023-05-02T02:37:12;12.40;;;4.05;;
53261;SDS011;39658;51.090;-1.786;2023-05-02T02:39:43;8.82;;;4.07;;
53261;SDS011;39658;51.090;-1.786;2023-05-02T02:42:17;10.25;;;4.85;;
53261;SDS011;39658;51.090;-1.786;2023-05-02T02:44:54;9.98;;;4.32;;
53261;SDS011;39658;51.090;-1.786;2023-05-02T02:47:28;10.27;;;4.78;;
53261;SDS011;39658;51.090;-1.786;2023-05-02T02:50:08;11.65;;;4.25;;
53261;SDS011;39658;51.090;-1.786;2023-05-02T02:52:46;12.07;;;5.22;;
53261;SDS011;39658;51.090;-1.786;2023-05-02T02:55:19;13.50;;;5.55;;
53261;SDS011;39658;51.090;-1.786;2023-05-02T02:57:56;12.75;;;4.22;;
53261;SDS011;39658;51.090;-1.786;2023-05-02T03:00:26;13.57;;;5.35;;
53261;SDS011;39658;51.090;-1.786;2023-05-02T03:02:54;11.80;;;5.22;;
53261;SDS011;39658;51.090;-1.786;2023-05-02T03:05:21;13.77;;;5.32;;
53261;SDS011;39658;51.090;-1.786;2023-05-02T03:07:50;13.10;;;5.50;;
53261;SDS011;39658;51.090;-1.786;2023-05-02T03:10:17;10.93;;;4.95;;
53261;SDS011;39658;51.090;-1.786;2023-05-02T03:12:44;12.38;;;5.32;;
53261;SDS011;39658;51.090;-1.786;2023-05-02T03:15:21;14.25;;;4.88;;
53261;SDS011;39658;51.090;-1.786;2023-05-02T03:17:58;10.43;;;4.30;;
53261;SDS011;39658;51.090;-1.786;2023-05-02T03:20:24;11.63;;;4.90;;
53261;SDS011;39658;51.090;-1.786;2023-05-02T03:22:53;13.60;;;5.43;;
53261;SDS011;39658;51.090;-1.786;2023-05-02T03:25:19;12.82;;;4.90;;
53261;SDS011;39658;51.090;-1.786;2023-05-02T03:27:46;14.90;;;4.70;;
53261;SDS011;39658;51.090;-1.786;2023-05-02T03:30:13;13.23;;;5.00;;
53261;SDS011;39658;51.090;-1.786;2023-05-02T03:32:40;11.68;;;5.15;;
53261;SDS011;39658;51.090;-1.786;2023-05-02T03:35:07;17.35;;;5.40;;
53261;SDS011;39658;51.090;-1.786;2023-05-02T03:37:34;13.00;;;5.22;;
53261;SDS011;39658;51.090;-1.786;2023-05-02T03:40:02;9.05;;;4.78;;
53261;SDS011;39658;51.090;-1.786;2023-05-02T03:42:29;11.98;;;4.70;;
53261;SDS011;39658;51.090;-1.786;2023-05-02T03:44:57;13.63;;;5.65;;
53261;SDS011;39658;51.090;-1.786;2023-05-02T03:47:24;14.05;;;5.00;;
53261;SDS011;39658;51.090;-1.786;2023-05-02T03:49:51;12.32;;;5.00;;
53261;SDS011;39658;51.090;-1.786;2023-05-02T03:52:17;12.48;;;5.00;;
53261;SDS011;39658;51.090;-1.786;2023-05-02T03:54:44;11.25;;;4.75;;
53261;SDS011;39658;51.090;-1.786;2023-05-02T03:57:12;14.43;;;6.72;;
53261;SDS011;39658;51.090;-1.786;2023-05-02T03:59:39;12.00;;;4.95;;
53261;SDS011;39658;51.090;-1.786;2023-05-02T04:02:07;10.80;;;4.72;;
53261;SDS011;39658;51.090;-1.786;2023-05-02T04:04:33;10.55;;;4.90;;
53261;SDS011;39658;51.090;-1.786;2023-05-02T04:07:01;13.30;;;6.13;;
53261;SDS011;39658;51.090;-1.786;2023-05-02T04:09:27;11.60;;;5.30;;
53261;SDS011;39658;51.090;-1.786;2023-05-02T04:11:54;10.07;;;4.85;;
53261;SDS011;39658;51.090;-1.786;2023-05-02T04:14:22;14.93;;;5.90;;
53261;SDS011;39658;51.090;-1.786;2023-05-02T04:16:49;13.50;;;5.90;;
53261;SDS011;39658;51.090;-1.786;2023-05-02T04:19:17;15.43;;;6.00;;
53261;SDS011;39658;51.090;-1.786;2023-05-02T04:21:44;15.32;;;6.97;;
53261;SDS011;39658;51.090;-1.786;2023-05-02T04:24:11;14.38;;;6.72;;
53261;SDS011;39658;51.090;-1.786;2023-05-02T04:26:38;13.02;;;5.80;;
53261;SDS011;39658;51.090;-1.786;2023-05-02T04:29:05;12.90;;;5.45;;
53261;SDS011;39658;51.090;-1.786;2023-05-02T04:31:34;13.80;;;6.65;;
53261;SDS011;39658;51.090;-1.786;2023-05-02T04:34:01;17.27;;;6.93;;
53261;SDS011;39658;51.090;-1.786;2023-05-02T04:36:28;16.65;;;6.10;;
53261;SDS011;39658;51.090;-1.786;2023-05-02T04:38:55;16.40;;;7.03;;
53261;SDS011;39658;51.090;-1.786;2023-05-02T04:41:21;17.65;;;7.15;;
53261;SDS011;39658;51.090;-1.786;2023-05-02T04:43:48;16.50;;;6.90;;
53261;SDS011;39658;51.090;-1.786;2023-05-02T04:46:15;15.85;;;6.78;;
53261;SDS011;39658;51.090;-1.786;2023-05-02T04:48:44;16.60;;;5.72;;
53261;SDS011;39658;51.090;-1.786;2023-05-02T04:51:11;12.30;;;5.75;;
53261;SDS011;39658;51.090;-1.786;2023-05-02T04:53:38;13.02;;;7.05;;
53261;SDS011;39658;51.090;-1.786;2023-05-02T04:56:05;17.98;;;6.18;;
53261;SDS011;39658;51.090;-1.786;2023-05-02T04:58:32;14.68;;;5.63;;
53261;SDS011;39658;51.090;-1.786;2023-05-02T05:00:59;14.93;;;6.90;;
53261;SDS011;39658;51.090;-1.786;2023-05-02T05:03:27;16.65;;;6.07;;
53261;SDS011;39658;51.090;-1.786;2023-05-02T05:05:56;13.98;;;6.32;;
53261;SDS011;39658;51.090;-1.786;2023-05-02T05:08:23;16.30;;;7.10;;
53261;SDS011;39658;51.090;-1.786;2023-05-02T05:10:49;15.77;;;6.60;;
53261;SDS011;39658;51.090;-1.786;2023-05-02T05:13:16;14.30;;;6.55;;
53261;SDS011;39658;51.090;-1.786;2023-05-02T05:15:43;16.50;;;7.00;;
53261;SDS011;39658;51.090;-1.786;2023-05-02T05:18:10;16.42;;;7.40;;
53261;SDS011;39658;51.090;-1.786;2023-05-02T05:20:37;18.08;;;7.93;;
53261;SDS011;39658;51.090;-1.786;2023-05-02T05:23:05;16.08;;;5.95;;
53261;SDS011;39658;51.090;-1.786;2023-05-02T05:25:32;20.10;;;8.55;;
53261;SDS011;39658;51.090;-1.786;2023-05-02T05:27:59;23.52;;;9.90;;
53261;SDS011;39658;51.090;-1.786;2023-05-02T05:30:25;27.63;;;9.48;;
53261;SDS011;39658;51.090;-1.786;2023-05-02T05:32:54;27.75;;;9.25;;
53261;SDS011;39658;51.090;-1.786;2023-05-02T05:35:22;32.95;;;12.15;;
53261;SDS011;39658;51.090;-1.786;2023-05-02T05:37:49;29.98;;;12.20;;
53261;SDS011;39658;51.090;-1.786;2023-05-02T05:40:17;39.08;;;15.20;;
53261;SDS011;39658;51.090;-1.786;2023-05-02T05:42:45;36.85;;;12.80;;
53261;SDS011;39658;51.090;-1.786;2023-05-02T05:45:12;40.38;;;15.02;;
53261;SDS011;39658;51.090;-1.786;2023-05-02T05:47:40;35.65;;;14.52;;
53261;SDS011;39658;51.090;-1.786;2023-05-02T05:50:07;38.42;;;12.95;;
53261;SDS011;39658;51.090;-1.786;2023-05-02T05:52:35;40.78;;;14.32;;
53261;SDS011;39658;51.090;-1.786;2023-05-02T05:55:02;38.33;;;13.98;;
53261;SDS011;39658;51.090;-1.786;2023-05-02T05:57:31;44.35;;;14.93;;
53261;SDS011;39658;51.090;-1.786;2023-05-02T05:59:58;38.38;;;15.35;;
53261;SDS011;39658;51.090;-1.786;2023-05-02T06:02:24;40.40;;;13.35;;
53261;SDS011;39658;51.090;-1.786;2023-05-02T06:04:51;45.22;;;15.60;;
53261;SDS011;39658;51.090;-1.786;2023-05-02T06:07:18;42.17;;;14.38;;
53261;SDS011;39658;51.090;-1.786;2023-05-02T06:09:45;41.42;;;15.23;;
53261;SDS011;39658;51.090;-1.786;2023-05-02T06:12:11;42.80;;;15.43;;
53261;SDS011;39658;51.090;-1.786;2023-05-02T06:14:41;41.22;;;14.02;;
53261;SDS011;39658;51.090;-1.786;2023-05-02T06:17:08;42.25;;;14.90;;
53261;SDS011;39658;51.090;-1.786;2023-05-02T06:19:35;36.03;;;13.90;;
53261;SDS011;39658;51.090;-1.786;2023-05-02T06:22:02;35.65;;;12.68;;
53261;SDS011;39658;51.090;-1.786;2023-05-02T06:24:29;34.20;;;14.02;;
53261;SDS011;39658;51.090;-1.786;2023-05-02T06:26:55;38.55;;;13.35;;
53261;SDS011;39658;51.090;-1.786;2023-05-02T06:29:22;33.95;;;12.38;;
53261;SDS011;39658;51.090;-1.786;2023-05-02T06:31:50;30.70;;;12.30;;
53261;SDS011;39658;51.090;-1.786;2023-05-02T06:34:20;35.35;;;12.68;;
53261;SDS011;39658;51.090;-1.786;2023-05-02T06:36:47;30.45;;;13.35;;
53261;SDS011;39658;51.090;-1.786;2023-05-02T06:39:14;35.05;;;13.32;;
53261;SDS011;39658;51.090;-1.786;2023-05-02T06:41:41;29.02;;;11.85;;
53261;SDS011;39658;51.090;-1.786;2023-05-02T06:44:07;24.45;;;9.73;;
53261;SDS011;39658;51.090;-1.786;2023-05-02T06:46:34;27.83;;;11.20;;
53261;SDS011;39658;51.090;-1.786;2023-05-02T06:49:02;26.60;;;10.00;;
53261;SDS011;39658;51.090;-1.786;2023-05-02T06:51:29;25.27;;;9.88;;
53261;SDS011;39658;51.090;-1.786;2023-05-02T06:53:56;23.90;;;10.77;;
53261;SDS011;39658;51.090;-1.786;2023-05-02T06:56:23;26.65;;;10.63;;
53261;SDS011;39658;51.090;-1.786;2023-05-02T06:58:50;26.30;;;10.35;;
53261;SDS011;39658;51.090;-1.786;2023-05-02T07:01:17;26.23;;;10.85;;
53261;SDS011;39658;51.090;-1.786;2023-05-02T07:03:44;26.67;;;11.23;;
53261;SDS011;39658;51.090;-1.786;2023-05-02T07:06:13;24.55;;;10.63;;
53261;SDS011;39658;51.090;-1.786;2023-05-02T07:08:40;22.20;;;10.38;;
53261;SDS011;39658;51.090;-1.786;2023-05-02T07:11:06;24.20;;;10.38;;
53261;SDS011;39658;51.090;-1.786;2023-05-02T07:13:33;24.27;;;9.80;;
53261;SDS011;39658;51.090;-1.786;2023-05-02T07:16:00;21.73;;;9.30;;
53261;SDS011;39658;51.090;-1.786;2023-05-02T07:18:27;24.13;;;10.38;;
53261;SDS011;39658;51.090;-1.786;2023-05-02T07:20:54;28.70;;;10.25;;
53261;SDS011;39658;51.090;-1.786;2023-05-02T07:23:22;22.83;;;10.27;;
53261;SDS011;39658;51.090;-1.786;2023-05-02T07:25:49;25.88;;;10.38;;
53261;SDS011;39658;51.090;-1.786;2023-05-02T07:28:15;27.10;;;11.30;;
53261;SDS011;39658;51.090;-1.786;2023-05-02T07:30:42;25.13;;;11.52;;
53261;SDS011;39658;51.090;-1.786;2023-05-02T07:33:09;25.70;;;10.23;;
53261;SDS011;39658;51.090;-1.786;2023-05-02T07:35:36;24.63;;;12.45;;
53261;SDS011;39658;51.090;-1.786;2023-05-02T07:38:02;27.92;;;10.73;;
53261;SDS011;39658;51.090;-1.786;2023-05-02T07:40:31;28.17;;;13.48;;
53261;SDS011;39658;51.090;-1.786;2023-05-02T07:42:59;27.55;;;11.32;;
53261;SDS011;39658;51.090;-1.786;2023-05-02T07:45:26;30.85;;;12.85;;
53261;SDS011;39658;51.090;-1.786;2023-05-02T07:47:53;23.50;;;10.93;;
53261;SDS011;39658;51.090;-1.786;2023-05-02T07:50:20;26.83;;;10.45;;
53261;SDS011;39658;51.090;-1.786;2023-05-02T07:52:47;30.95;;;10.68;;
53261;SDS011;39658;51.090;-1.786;2023-05-02T07:55:13;24.90;;;10.70;;
53261;SDS011;39658;51.090;-1.786;2023-05-02T07:57:41;24.83;;;10.98;;
53261;SDS011;39658;51.090;-1.786;2023-05-02T08:00:08;24.48;;;11.10;;
53261;SDS011;39658;51.090;-1.786;2023-05-02T08:02:36;25.02;;;10.20;;
53261;SDS011;39658;51.090;-1.786;2023-05-02T08:05:03;26.52;;;10.20;;
53261;SDS011;39658;51.090;-1.786;2023-05-02T08:07:30;21.77;;;10.75;;
53261;SDS011;39658;51.090;-1.786;2023-05-02T08:09:57;20.98;;;10.45;;
53261;SDS011;39658;51.090;-1.786;2023-05-02T08:12:24;24.73;;;11.18;;
53261;SDS011;39658;51.090;-1.786;2023-05-02T08:14:52;23.83;;;10.82;;
53261;SDS011;39658;51.090;-1.786;2023-05-02T08:17:19;24.88;;;10.07;;
53261;SDS011;39658;51.090;-1.786;2023-05-02T08:19:46;21.83;;;9.52;;
53261;SDS011;39658;51.090;-1.786;2023-05-02T08:22:13;24.90;;;10.35;;
53261;SDS011;39658;51.090;-1.786;2023-05-02T08:24:39;21.58;;;9.82;;
53261;SDS011;39658;51.090;-1.786;2023-05-02T08:27:06;27.15;;;9.05;;
53261;SDS011;39658;51.090;-1.786;2023-05-02T08:29:33;16.17;;;7.47;;
53261;SDS011;39658;51.090;-1.786;2023-05-02T08:32:01;21.00;;;9.43;;
53261;SDS011;39658;51.090;-1.786;2023-05-02T08:34:28;23.73;;;9.45;;
53261;SDS011;39658;51.090;-1.786;2023-05-02T08:36:55;18.15;;;8.75;;
53261;SDS011;39658;51.090;-1.786;2023-05-02T08:39:22;24.80;;;10.13;;
53261;SDS011;39658;51.090;-1.786;2023-05-02T08:41:48;22.23;;;10.43;;
53261;SDS011;39658;51.090;-1.786;2023-05-02T08:44:15;21.75;;;8.60;;
53261;SDS011;39658;51.090;-1.786;2023-05-02T08:46:42;19.25;;;8.45;;
53261;SDS011;39658;51.090;-1.786;2023-05-02T08:49:12;21.45;;;9.35;;
53261;SDS011;39658;51.090;-1.786;2023-05-02T08:51:42;18.25;;;8.45;;
53261;SDS011;39658;51.090;-1.786;2023-05-02T08:54:11;23.42;;;9.30;;
53261;SDS011;39658;51.090;-1.786;2023-05-02T08:56:42;20.88;;;9.20;;
53261;SDS011;39658;51.090;-1.786;2023-05-02T08:59:09;25.67;;;10.02;;
53261;SDS011;39658;51.090;-1.786;2023-05-02T09:01:35;17.88;;;8.10;;
53261;SDS011;39658;51.090;-1.786;2023-05-02T09:04:03;18.98;;;9.00;;
53261;SDS011;39658;51.090;-1.786;2023-05-02T09:06:31;19.88;;;8.70;;
53261;SDS011;39658;51.090;-1.786;2023-05-02T09:08:59;18.42;;;8.05;;
53261;SDS011;39658;51.090;-1.786;2023-05-02T09:11:26;22.15;;;9.48;;
53261;SDS011;39658;51.090;-1.786;2023-05-02T09:13:54;21.02;;;9.52;;
53261;SDS011;39658;51.090;-1.786;2023-05-02T09:16:23;20.02;;;8.43;;
53261;SDS011;39658;51.090;-1.786;2023-05-02T09:18:51;19.40;;;8.90;;
53261;SDS011;39658;51.090;-1.786;2023-05-02T09:21:19;18.80;;;8.02;;
53261;SDS011;39658;51.090;-1.786;2023-05-02T09:23:49;22.20;;;9.20;;
53261;SDS011;39658;51.090;-1.786;2023-05-02T09:26:17;20.55;;;8.63;;
53261;SDS011;39658;51.090;-1.786;2023-05-02T09:28:46;21.38;;;9.10;;
53261;SDS011;39658;51.090;-1.786;2023-05-02T09:31:14;16.48;;;7.75;;
53261;SDS011;39658;51.090;-1.786;2023-05-02T09:33:42;17.55;;;8.77;;
53261;SDS011;39658;51.090;-1.786;2023-05-02T09:36:10;15.95;;;7.80;;
53261;SDS011;39658;51.090;-1.786;2023-05-02T09:38:39;21.33;;;8.60;;
53261;SDS011;39658;51.090;-1.786;2023-05-02T09:41:07;21.48;;;9.48;;
53261;SDS011;39658;51.090;-1.786;2023-05-02T09:43:34;23.00;;;9.00;;
53261;SDS011;39658;51.090;-1.786;2023-05-02T09:46:02;20.67;;;8.25;;
53261;SDS011;39658;51.090;-1.786;2023-05-02T09:48:30;21.00;;;8.35;;
53261;SDS011;39658;51.090;-1.786;2023-05-02T09:50:58;25.13;;;8.63;;
53261;SDS011;39658;51.090;-1.786;2023-05-02T09:53:25;20.38;;;9.10;;
53261;SDS011;39658;51.090;-1.786;2023-05-02T09:55:59;20.05;;;8.23;;
53261;SDS011;39658;51.090;-1.786;2023-05-02T09:58:31;18.80;;;7.85;;
53261;SDS011;39658;51.090;-1.786;2023-05-02T10:00:58;19.90;;;7.80;;
53261;SDS011;39658;51.090;-1.786;2023-05-02T10:03:25;19.83;;;8.48;;
53261;SDS011;39658;51.090;-1.786;2023-05-02T10:05:54;25.00;;;9.35;;
53261;SDS011;39658;51.090;-1.786;2023-05-02T10:08:24;18.35;;;8.27;;
53261;SDS011;39658;51.090;-1.786;2023-05-02T10:10:53;21.98;;;8.90;;
53261;SDS011;39658;51.090;-1.786;2023-05-02T10:13:21;21.90;;;9.50;;
53261;SDS011;39658;51.090;-1.786;2023-05-02T10:15:57;22.38;;;8.65;;
53261;SDS011;39658;51.090;-1.786;2023-05-02T10:18:26;20.77;;;9.60;;
53261;SDS011;39658;51.090;-1.786;2023-05-02T10:20:55;18.33;;;7.32;;
53261;SDS011;39658;51.090;-1.786;2023-05-02T10:23:27;19.17;;;8.82;;
53261;SDS011;39658;51.090;-1.786;2023-05-02T10:25:55;21.80;;;8.35;;
53261;SDS011;39658;51.090;-1.786;2023-05-02T10:28:23;18.60;;;8.02;;
53261;SDS011;39658;51.090;-1.786;2023-05-02T10:30:51;20.63;;;7.85;;
53261;SDS011;39658;51.090;-1.786;2023-05-02T10:33:21;19.60;;;8.85;;
53261;SDS011;39658;51.090;-1.786;2023-05-02T10:35:48;25.23;;;8.75;;
53261;SDS011;39658;51.090;-1.786;2023-05-02T10:38:15;21.30;;;8.40;;
53261;SDS011;39658;51.090;-1.786;2023-05-02T10:40:51;19.67;;;9.27;;
53261;SDS011;39658;51.090;-1.786;2023-05-02T10:43:25;22.95;;;8.40;;
53261;SDS011;39658;51.090;-1.786;2023-05-02T10:45:53;14.45;;;7.68;;
53261;SDS011;39658;51.090;-1.786;2023-05-02T10:48:22;18.73;;;8.40;;
53261;SDS011;39658;51.090;-1.786;2023-05-02T10:50:51;17.35;;;7.65;;
53261;SDS011;39658;51.090;-1.786;2023-05-02T10:53:26;17.10;;;7.65;;
53261;SDS011;39658;51.090;-1.786;2023-05-02T10:56:11;15.57;;;7.10;;
53261;SDS011;39658;51.090;-1.786;2023-05-02T10:58:42;18.23;;;6.20;;
53261;SDS011;39658;51.090;-1.786;2023-05-02T11:04:07;15.88;;;6.75;;
53261;SDS011;39658;51.090;-1.786;2023-05-02T11:06:36;17.02;;;6.90;;
53261;SDS011;39658;51.090;-1.786;2023-05-02T11:09:32;19.70;;;7.15;;
53261;SDS011;39658;51.090;-1.786;2023-05-02T11:11:59;16.88;;;6.75;;
53261;SDS011;39658;51.090;-1.786;2023-05-02T11:14:44;16.27;;;6.75;;
53261;SDS011;39658;51.090;-1.786;2023-05-02T11:17:17;15.82;;;7.43;;
53261;SDS011;39658;51.090;-1.786;2023-05-02T11:22:50;14.30;;;7.35;;
53261;SDS011;39658;51.090;-1.786;2023-05-02T11:25:33;15.65;;;6.53;;
53261;SDS011;39658;51.090;-1.786;2023-05-02T11:28:01;15.65;;;7.63;;
53261;SDS011;39658;51.090;-1.786;2023-05-02T11:30:35;19.02;;;7.05;;
53261;SDS011;39658;51.090;-1.786;2023-05-02T11:33:11;14.77;;;6.93;;
53261;SDS011;39658;51.090;-1.786;2023-05-02T11:35:41;14.63;;;7.35;;
53261;SDS011;39658;51.090;-1.786;2023-05-02T11:38:11;14.50;;;6.28;;
53261;SDS011;39658;51.090;-1.786;2023-05-02T11:40:39;14.00;;;6.25;;
53261;SDS011;39658;51.090;-1.786;2023-05-02T11:43:12;12.98;;;6.53;;
53261;SDS011;39658;51.090;-1.786;2023-05-02T11:45:39;11.90;;;6.60;;
53261;SDS011;39658;51.090;-1.786;2023-05-02T11:48:08;13.13;;;6.43;;
53261;SDS011;39658;51.090;-1.786;2023-05-02T11:50:40;14.77;;;5.80;;
53261;SDS011;39658;51.090;-1.786;2023-05-02T11:53:10;11.57;;;5.50;;
53261;SDS011;39658;51.090;-1.786;2023-05-02T11:55:42;11.55;;;6.35;;
53261;SDS011;39658;51.090;-1.786;2023-05-02T11:58:14;14.90;;;6.10;;
53261;SDS011;39658;51.090;-1.786;2023-05-02T12:00:42;11.52;;;5.20;;
53261;SDS011;39658;51.090;-1.786;2023-05-02T12:03:18;10.27;;;5.22;;
53261;SDS011;39658;51.090;-1.786;2023-05-02T12:05:46;9.70;;;5.00;;
53261;SDS011;39658;51.090;-1.786;2023-05-02T12:08:18;14.07;;;6.15;;
53261;SDS011;39658;51.090;-1.786;2023-05-02T12:10:45;12.00;;;5.95;;
53261;SDS011;39658;51.090;-1.786;2023-05-02T12:13:12;12.52;;;6.35;;
53261;SDS011;39658;51.090;-1.786;2023-05-02T12:15:40;15.23;;;6.45;;
53261;SDS011;39658;51.090;-1.786;2023-05-02T12:18:07;13.98;;;7.32;;
53261;SDS011;39658;51.090;-1.786;2023-05-02T12:20:34;14.30;;;5.68;;
53261;SDS011;39658;51.090;-1.786;2023-05-02T12:23:03;13.43;;;6.38;;
53261;SDS011;39658;51.090;-1.786;2023-05-02T12:25:36;13.48;;;6.30;;
53261;SDS011;39658;51.090;-1.786;2023-05-02T12:28:04;12.98;;;7.35;;
53261;SDS011;39658;51.090;-1.786;2023-05-02T12:30:31;12.85;;;6.45;;
53261;SDS011;39658;51.090;-1.786;2023-05-02T12:32:59;12.70;;;6.00;;
53261;SDS011;39658;51.090;-1.786;2023-05-02T12:35:26;15.55;;;6.32;;
53261;SDS011;39658;51.090;-1.786;2023-05-02T12:37:54;13.43;;;6.10;;
53261;SDS011;39658;51.090;-1.786;2023-05-02T12:40:33;15.95;;;7.65;;
53261;SDS011;39658;51.090;-1.786;2023-05-02T12:43:02;13.52;;;5.97;;
53261;SDS011;39658;51.090;-1.786;2023-05-02T12:45:31;11.32;;;6.10;;
53261;SDS011;39658;51.090;-1.786;2023-05-02T12:47:59;9.45;;;5.38;;
53261;SDS011;39658;51.090;-1.786;2023-05-02T12:50:36;15.13;;;6.82;;
53261;SDS011;39658;51.090;-1.786;2023-05-02T12:53:03;13.90;;;6.57;;
53261;SDS011;39658;51.090;-1.786;2023-05-02T12:55:30;11.77;;;5.95;;
53261;SDS011;39658;51.090;-1.786;2023-05-02T12:58:01;13.45;;;6.40;;
53261;SDS011;39658;51.090;-1.786;2023-05-02T13:00:29;12.30;;;5.90;;
53261;SDS011;39658;51.090;-1.786;2023-05-02T13:02:57;12.68;;;5.75;;
53261;SDS011;39658;51.090;-1.786;2023-05-02T13:05:24;15.50;;;6.35;;
53261;SDS011;39658;51.090;-1.786;2023-05-02T13:07:51;9.90;;;5.93;;
53261;SDS011;39658;51.090;-1.786;2023-05-02T13:10:20;14.85;;;6.00;;
53261;SDS011;39658;51.090;-1.786;2023-05-02T13:12:49;13.80;;;6.57;;
53261;SDS011;39658;51.090;-1.786;2023-05-02T13:15:17;15.55;;;7.10;;
53261;SDS011;39658;51.090;-1.786;2023-05-02T13:17:44;15.23;;;6.03;;
53261;SDS011;39658;51.090;-1.786;2023-05-02T13:20:12;12.75;;;5.35;;
53261;SDS011;39658;51.090;-1.786;2023-05-02T13:22:39;10.00;;;4.78;;
53261;SDS011;39658;51.090;-1.786;2023-05-02T13:25:06;14.15;;;5.30;;
53261;SDS011;39658;51.090;-1.786;2023-05-02T13:27:34;10.73;;;5.93;;
53261;SDS011;39658;51.090;-1.786;2023-05-02T13:30:00;13.90;;;6.13;;
53261;SDS011;39658;51.090;-1.786;2023-05-02T13:32:29;8.98;;;5.43;;
53261;SDS011;39658;51.090;-1.786;2023-05-02T13:34:56;10.68;;;5.20;;
53261;SDS011;39658;51.090;-1.786;2023-05-02T13:37:23;13.25;;;5.50;;
53261;SDS011;39658;51.090;-1.786;2023-05-02T13:39:50;9.80;;;5.20;;
53261;SDS011;39658;51.090;-1.786;2023-05-02T13:42:17;11.70;;;6.03;;
53261;SDS011;39658;51.090;-1.786;2023-05-02T13:44:44;10.65;;;6.78;;
53261;SDS011;39658;51.090;-1.786;2023-05-02T13:47:10;8.77;;;5.07;;
53261;SDS011;39658;51.090;-1.786;2023-05-02T13:49:39;11.80;;;5.80;;
53261;SDS011;39658;51.090;-1.786;2023-05-02T13:52:05;10.73;;;6.25;;
53261;SDS011;39658;51.090;-1.786;2023-05-02T13:54:32;11.90;;;5.22;;
53261;SDS011;39658;51.090;-1.786;2023-05-02T13:56:59;13.73;;;6.28;;
53261;SDS011;39658;51.090;-1.786;2023-05-02T13:59:26;9.27;;;5.13;;
53261;SDS011;39658;51.090;-1.786;2023-05-02T14:01:53;11.15;;;4.75;;
53261;SDS011;39658;51.090;-1.786;2023-05-02T14:04:20;10.38;;;5.45;;
53261;SDS011;39658;51.090;-1.786;2023-05-02T14:06:48;11.57;;;5.97;;
53261;SDS011;39658;51.090;-1.786;2023-05-02T14:09:15;10.13;;;5.28;;
53261;SDS011;39658;51.090;-1.786;2023-05-02T14:11:42;10.50;;;5.00;;
53261;SDS011;39658;51.090;-1.786;2023-05-02T14:14:11;9.88;;;5.20;;
53261;SDS011;39658;51.090;-1.786;2023-05-02T14:16:38;12.63;;;4.97;;
53261;SDS011;39658;51.090;-1.786;2023-05-02T14:19:05;9.07;;;4.97;;
53261;SDS011;39658;51.090;-1.786;2023-05-02T14:21:32;10.55;;;5.50;;
53261;SDS011;39658;51.090;-1.786;2023-05-02T14:24:00;11.82;;;5.50;;
53261;SDS011;39658;51.090;-1.786;2023-05-02T14:26:26;11.73;;;5.40;;
53261;SDS011;39658;51.090;-1.786;2023-05-02T14:28:53;10.95;;;4.97;;
53261;SDS011;39658;51.090;-1.786;2023-05-02T14:31:21;10.30;;;6.25;;
53261;SDS011;39658;51.090;-1.786;2023-05-02T14:33:47;13.82;;;5.53;;